createdAt,value
2022-09-11T00:00:08.894Z,89.18
2022-09-11T00:01:08.848Z,89.23
2022-09-11T00:02:08.915Z,89.25
2022-09-11T00:03:08.770Z,89.29
2022-09-11T00:04:08.711Z,89.34
2022-09-11T00:05:08.651Z,89.33
2022-09-11T00:06:08.620Z,89.19
2022-09-11T00:07:08.550Z,89.16
2022-09-11T00:08:08.507Z,89.27
2022-09-11T00:09:08.457Z,89.36
2022-09-11T00:10:08.415Z,89.43
2022-09-11T00:11:08.381Z,89.51
2022-09-11T00:12:08.289Z,89.60
2022-09-11T00:13:08.239Z,89.69
2022-09-11T00:14:08.190Z,89.66
2022-09-11T00:15:08.146Z,89.62
2022-09-11T00:16:08.122Z,89.61
2022-09-11T00:17:08.025Z,89.69
2022-09-11T00:18:07.966Z,89.69
2022-09-11T00:19:07.916Z,89.67
2022-09-11T00:20:07.867Z,89.72
2022-09-11T00:21:07.813Z,89.72
2022-09-11T00:22:07.766Z,89.64
2022-09-11T00:23:07.708Z,89.44
2022-09-11T00:24:07.656Z,89.09
2022-09-11T00:25:07.616Z,89.28
2022-09-11T00:26:07.556Z,89.30
2022-09-11T00:27:07.506Z,89.14
2022-09-11T00:28:07.445Z,89.23
2022-09-11T00:29:07.397Z,89.29
2022-09-11T00:30:07.358Z,89.34
2022-09-11T00:31:07.315Z,89.39
2022-09-11T00:32:07.234Z,89.47
2022-09-11T00:33:07.182Z,89.57
2022-09-11T00:34:07.151Z,89.44
2022-09-11T00:35:07.096Z,89.47
2022-09-11T00:36:07.042Z,89.45
2022-09-11T00:37:06.992Z,89.24
2022-09-11T00:38:06.943Z,89.25
2022-09-11T00:39:06.902Z,89.37
2022-09-11T00:40:06.919Z,89.50
2022-09-11T00:41:06.801Z,89.55
2022-09-11T00:42:06.751Z,89.60
2022-09-11T00:43:06.701Z,89.64
2022-09-11T00:44:06.642Z,89.67
2022-09-11T00:45:06.591Z,89.52
2022-09-11T00:46:06.554Z,89.18
2022-09-11T00:47:06.477Z,89.32
2022-09-11T00:48:06.437Z,89.43
2022-09-11T00:49:06.382Z,89.52
2022-09-11T00:50:06.621Z,89.61
2022-09-11T00:51:06.278Z,89.74
2022-09-11T00:52:06.220Z,89.78
2022-09-11T00:53:06.180Z,89.84
2022-09-11T00:54:06.122Z,89.74
2022-09-11T00:55:06.079Z,88.57
2022-09-11T00:56:06.011Z,87.79
2022-09-11T00:57:05.959Z,87.78
2022-09-11T00:58:05.905Z,88.08
2022-09-11T00:59:05.844Z,88.21
2022-09-11T01:00:05.810Z,88.12
2022-09-11T01:01:05.774Z,88.28
2022-09-11T01:02:05.742Z,88.64
2022-09-11T01:03:05.639Z,88.93
2022-09-11T01:04:05.595Z,88.69
2022-09-11T01:05:05.543Z,88.33
2022-09-11T01:06:05.483Z,88.43
2022-09-11T01:07:05.429Z,88.83
2022-09-11T01:08:05.395Z,89.03
2022-09-11T01:09:05.327Z,88.96
2022-09-11T01:10:05.285Z,89.06
2022-09-11T01:11:05.217Z,89.04
2022-09-11T01:12:05.166Z,88.57
2022-09-11T01:13:05.117Z,88.60
2022-09-11T01:14:05.067Z,88.85
2022-09-11T01:15:05.055Z,89.26
2022-09-11T01:16:05.048Z,89.03
2022-09-11T01:17:04.906Z,87.89
2022-09-11T01:18:04.855Z,87.28
2022-09-11T01:19:04.804Z,86.99
2022-09-11T01:20:04.755Z,86.81
2022-09-11T01:21:04.685Z,86.60
2022-09-11T01:22:04.634Z,86.93
2022-09-11T01:23:04.576Z,87.50
2022-09-11T01:24:04.512Z,87.91
2022-09-11T01:25:04.464Z,88.28
2022-09-11T01:26:04.400Z,88.68
2022-09-11T01:27:04.344Z,88.80
2022-09-11T01:28:04.292Z,88.74
2022-09-11T01:29:04.231Z,88.95
2022-09-11T01:30:05.485Z,89.23
2022-09-11T01:31:04.131Z,89.33
2022-09-11T01:32:04.063Z,89.43
2022-09-11T01:33:04.023Z,89.50
2022-09-11T01:34:03.962Z,89.57
2022-09-11T01:35:03.923Z,89.47
2022-09-11T01:36:03.863Z,89.13
2022-09-11T01:37:03.811Z,88.78
2022-09-11T01:38:03.758Z,87.82
2022-09-11T01:39:03.708Z,87.82
2022-09-11T01:40:03.702Z,87.66
2022-09-11T01:41:03.601Z,87.78
2022-09-11T01:42:03.558Z,87.99
2022-09-11T01:43:03.513Z,88.42
2022-09-11T01:44:03.463Z,88.61
2022-09-11T01:45:03.427Z,88.81
2022-09-11T01:46:03.423Z,89.03
2022-09-11T01:47:03.309Z,89.00
2022-09-11T01:48:03.259Z,88.98
2022-09-11T01:49:03.209Z,89.10
2022-09-11T01:50:03.175Z,89.28
2022-09-11T01:51:03.098Z,89.42
2022-09-11T01:52:03.063Z,89.59
2022-09-11T01:53:03.005Z,89.72
2022-09-11T01:54:02.969Z,89.70
2022-09-11T01:55:02.918Z,89.75
2022-09-11T01:56:02.847Z,89.84
2022-09-11T01:57:02.808Z,89.89
2022-09-11T01:58:02.758Z,89.90
2022-09-11T01:59:02.707Z,90.01
2022-09-11T02:00:02.690Z,89.96
2022-09-11T02:01:02.639Z,89.87
2022-09-11T02:02:02.601Z,89.79
2022-09-11T02:03:02.526Z,89.81
2022-09-11T02:04:02.485Z,89.87
2022-09-11T02:05:02.446Z,89.87
2022-09-11T02:06:02.393Z,89.90
2022-09-11T02:07:02.335Z,89.81
2022-09-11T02:08:02.286Z,89.69
2022-09-11T02:09:02.235Z,89.66
2022-09-11T02:10:02.192Z,89.75
2022-09-11T02:11:02.134Z,89.96
2022-09-11T02:12:02.084Z,90.12
2022-09-11T02:13:02.024Z,90.11
2022-09-11T02:14:01.987Z,90.06
2022-09-11T02:15:01.924Z,89.98
2022-09-11T02:16:01.878Z,89.96
2022-09-11T02:17:01.803Z,89.98
2022-09-11T02:18:01.756Z,90.06
2022-09-11T02:19:01.693Z,90.10
2022-09-11T02:20:01.653Z,90.17
2022-09-11T02:21:01.580Z,90.16
2022-09-11T02:22:01.526Z,90.06
2022-09-11T02:23:01.472Z,90.03
2022-09-11T02:24:01.421Z,90.04
2022-09-11T02:25:01.380Z,90.08
2022-09-11T02:26:01.320Z,90.05
2022-09-11T02:27:01.268Z,90.05
2022-09-11T02:28:01.221Z,90.09
2022-09-11T02:29:01.158Z,90.12
2022-09-11T02:30:01.100Z,90.15
2022-09-11T02:31:01.030Z,90.28
2022-09-11T02:32:00.985Z,89.92
2022-09-11T02:33:00.920Z,89.79
2022-09-11T02:34:00.870Z,89.85
2022-09-11T02:35:00.836Z,89.76
2022-09-11T02:36:00.785Z,89.88
2022-09-11T02:37:00.739Z,89.75
2022-09-11T02:38:00.679Z,89.73
2022-09-11T02:39:00.633Z,89.54
2022-09-11T02:40:00.630Z,89.66
2022-09-11T02:41:00.527Z,89.57
2022-09-11T02:42:00.469Z,89.67
2022-09-11T02:43:00.420Z,89.70
2022-09-11T02:44:00.367Z,89.77
2022-09-11T02:45:00.330Z,89.84
2022-09-11T02:46:00.348Z,89.83
2022-09-11T02:47:00.227Z,89.86
2022-09-11T02:48:00.186Z,89.88
2022-09-11T02:49:00.130Z,89.87
2022-09-11T02:50:00.099Z,89.97
2022-09-11T02:51:00.028Z,89.99
2022-09-11T02:51:59.985Z,90.01
2022-09-11T02:52:59.927Z,90.04
2022-09-11T02:53:59.876Z,89.98
2022-09-11T02:54:59.835Z,89.87
2022-09-11T02:55:59.785Z,89.92
2022-09-11T02:56:59.725Z,89.27
2022-09-11T02:57:59.678Z,88.45
2022-09-11T02:58:59.625Z,88.16
2022-09-11T02:59:59.575Z,88.40
2022-09-11T03:00:59.631Z,88.48
2022-09-11T03:01:59.510Z,88.19
2022-09-11T03:02:59.407Z,88.29
2022-09-11T03:03:59.355Z,88.67
2022-09-11T03:04:59.312Z,88.84
2022-09-11T03:05:59.252Z,89.09
2022-09-11T03:06:59.191Z,89.37
2022-09-11T03:07:59.145Z,89.54
2022-09-11T03:08:59.086Z,89.75
2022-09-11T03:09:59.046Z,89.86
2022-09-11T03:10:58.960Z,90.01
2022-09-11T03:11:58.910Z,90.04
2022-09-11T03:12:58.852Z,90.04
2022-09-11T03:13:58.801Z,90.15
2022-09-11T03:14:58.759Z,90.25
2022-09-11T03:15:58.733Z,90.32
2022-09-11T03:16:58.642Z,90.38
2022-09-11T03:17:58.593Z,90.32
2022-09-11T03:18:58.540Z,90.18
2022-09-11T03:19:58.483Z,90.05
2022-09-11T03:20:58.431Z,90.04
2022-09-11T03:21:58.370Z,90.11
2022-09-11T03:22:58.309Z,90.19
2022-09-11T03:23:58.259Z,90.23
2022-09-11T03:24:58.199Z,90.30
2022-09-11T03:25:58.159Z,90.28
2022-09-11T03:26:58.090Z,90.28
2022-09-11T03:27:58.028Z,90.23
2022-09-11T03:28:57.973Z,90.23
2022-09-11T03:29:57.918Z,90.20
2022-09-11T03:30:57.876Z,90.20
2022-09-11T03:31:57.858Z,90.23
2022-09-11T03:32:57.768Z,90.34
2022-09-11T03:33:57.725Z,90.34
2022-09-11T03:34:57.675Z,90.39
2022-09-11T03:35:57.637Z,90.36
2022-09-11T03:36:57.567Z,90.29
2022-09-11T03:37:57.515Z,90.32
2022-09-11T03:38:57.464Z,90.29
2022-09-11T03:39:57.462Z,90.24
2022-09-11T03:40:57.363Z,90.07
2022-09-11T03:41:57.294Z,90.14
2022-09-11T03:42:57.235Z,90.24
2022-09-11T03:43:57.182Z,90.24
2022-09-11T03:44:57.138Z,90.15
2022-09-11T03:45:57.123Z,90.12
2022-09-11T03:46:57.005Z,90.10
2022-09-11T03:47:56.955Z,89.88
2022-09-11T03:48:56.894Z,89.91
2022-09-11T03:49:56.842Z,89.66
2022-09-11T03:50:56.795Z,89.69
2022-09-11T03:51:56.724Z,89.86
2022-09-11T03:52:56.672Z,89.97
2022-09-11T03:53:56.620Z,89.87
2022-09-11T03:54:56.563Z,90.01
2022-09-11T03:55:56.513Z,89.93
2022-09-11T03:56:56.440Z,89.83
2022-09-11T03:57:56.383Z,89.89
2022-09-11T03:58:56.312Z,89.85
2022-09-11T03:59:56.266Z,89.88
2022-09-11T04:00:56.288Z,89.77
2022-09-11T04:01:56.199Z,89.77
2022-09-11T04:02:56.094Z,89.73
2022-09-11T04:03:56.044Z,89.16
2022-09-11T04:04:55.991Z,88.62
2022-09-11T04:05:55.941Z,88.53
2022-09-11T04:06:55.875Z,88.77
2022-09-11T04:07:55.820Z,89.07
2022-09-11T04:08:55.770Z,89.28
2022-09-11T04:09:55.720Z,89.03
2022-09-11T04:10:55.681Z,88.63
2022-09-11T04:11:55.609Z,88.42
2022-09-11T04:12:55.564Z,88.41
2022-09-11T04:13:55.509Z,88.64
2022-09-11T04:14:55.459Z,88.88
2022-09-11T04:15:55.417Z,89.08
2022-09-11T04:16:55.366Z,89.15
2022-09-11T04:17:55.308Z,89.43
2022-09-11T04:18:55.268Z,89.16
2022-09-11T04:19:55.222Z,89.34
2022-09-11T04:20:55.170Z,89.54
2022-09-11T04:21:55.107Z,89.75
2022-09-11T04:22:55.060Z,89.82
2022-09-11T04:23:55.007Z,89.91
2022-09-11T04:24:54.956Z,89.96
2022-09-11T04:25:54.908Z,90.08
2022-09-11T04:26:59.940Z,90.12
2022-09-11T04:27:55.796Z,90.12
2022-09-11T04:28:54.737Z,90.16
2022-09-11T04:29:54.793Z,90.19
2022-09-11T04:30:54.645Z,90.16
2022-09-11T04:31:54.607Z,89.94
2022-09-11T04:32:54.545Z,90.01
2022-09-11T04:33:57.467Z,89.95
2022-09-11T04:34:54.446Z,89.80
2022-09-11T04:35:54.402Z,89.74
2022-09-11T04:36:54.342Z,89.70
2022-09-11T04:37:54.292Z,89.97
2022-09-11T04:38:54.244Z,90.17
2022-09-11T04:39:54.214Z,90.22
2022-09-11T04:40:54.145Z,90.16
2022-09-11T04:41:54.093Z,90.23
2022-09-11T04:42:54.032Z,90.29
2022-09-11T04:43:53.982Z,90.32
2022-09-11T04:44:53.922Z,90.42
2022-09-11T04:45:53.906Z,90.25
2022-09-11T04:46:53.812Z,90.20
2022-09-11T04:47:53.762Z,90.18
2022-09-11T04:48:53.702Z,90.19
2022-09-11T04:49:53.651Z,90.23
2022-09-11T04:50:53.601Z,90.21
2022-09-11T04:51:53.532Z,90.27
2022-09-11T04:52:53.481Z,90.14
2022-09-11T04:53:53.430Z,89.74
2022-09-11T04:54:53.378Z,89.95
2022-09-11T04:55:53.330Z,89.94
2022-09-11T04:56:53.270Z,89.92
2022-09-11T04:57:53.218Z,89.85
2022-09-11T04:58:53.170Z,89.99
2022-09-11T04:59:53.119Z,90.08
2022-09-11T05:00:53.109Z,90.20
2022-09-11T05:01:53.051Z,90.31
2022-09-11T05:02:52.969Z,90.31
2022-09-11T05:03:52.920Z,90.41
2022-09-11T05:04:52.869Z,90.43
2022-09-11T05:05:52.824Z,90.43
2022-09-11T05:06:52.762Z,90.21
2022-09-11T05:07:52.709Z,90.13
2022-09-11T05:08:52.646Z,90.38
2022-09-11T05:09:52.586Z,90.44
2022-09-11T05:10:52.550Z,90.38
2022-09-11T05:11:52.477Z,90.26
2022-09-11T05:12:52.424Z,90.26
2022-09-11T05:13:52.374Z,90.10
2022-09-11T05:14:52.324Z,90.08
2022-09-11T05:15:52.284Z,90.04
2022-09-11T05:16:52.206Z,89.91
2022-09-11T05:17:52.164Z,89.98
2022-09-11T05:18:52.136Z,90.09
2022-09-11T05:19:52.055Z,90.24
2022-09-11T05:20:52.004Z,90.28
2022-09-11T05:21:51.945Z,90.39
2022-09-11T05:22:51.885Z,90.01
2022-09-11T05:23:51.835Z,89.18
2022-09-11T05:24:51.781Z,89.21
2022-09-11T05:25:51.725Z,89.57
2022-09-11T05:26:51.684Z,89.32
2022-09-11T05:27:51.615Z,88.48
2022-09-11T05:28:51.554Z,88.29
2022-09-11T05:29:51.504Z,88.32
2022-09-11T05:30:52.396Z,88.48
2022-09-11T05:31:51.441Z,87.87
2022-09-11T05:32:51.361Z,87.99
2022-09-11T05:33:51.303Z,88.05
2022-09-11T05:34:51.252Z,88.46
2022-09-11T05:35:51.202Z,88.80
2022-09-11T05:36:51.167Z,89.10
2022-09-11T05:37:51.112Z,89.38
2022-09-11T05:38:51.041Z,89.58
2022-09-11T05:39:51.026Z,89.75
2022-09-11T05:40:50.941Z,89.86
2022-09-11T05:41:50.909Z,89.61
2022-09-11T05:42:50.831Z,88.92
2022-09-11T05:43:50.783Z,88.59
2022-09-11T05:44:50.738Z,88.93
2022-09-11T05:45:50.710Z,89.40
2022-09-11T05:46:50.651Z,89.72
2022-09-11T05:47:53.142Z,89.81
2022-09-11T05:48:51.547Z,89.89
2022-09-11T05:49:50.489Z,89.83
2022-09-11T05:50:50.440Z,89.63
2022-09-11T05:51:50.399Z,89.40
2022-09-11T05:52:50.348Z,89.20
2022-09-11T05:53:50.382Z,89.19
2022-09-11T05:54:50.248Z,89.12
2022-09-11T05:55:50.197Z,89.17
2022-09-11T05:56:50.158Z,89.33
2022-09-11T05:57:50.107Z,89.63
2022-09-11T05:58:50.057Z,89.18
2022-09-11T05:59:50.010Z,87.90
2022-09-11T06:00:50.062Z,87.55
2022-09-11T06:01:50.000Z,87.85
2022-09-11T06:02:49.867Z,88.09
2022-09-11T06:03:49.818Z,88.27
2022-09-11T06:04:49.767Z,88.32
2022-09-11T06:05:49.716Z,88.42
2022-09-11T06:06:49.675Z,88.70
2022-09-11T06:07:49.625Z,88.99
2022-09-11T06:08:49.566Z,89.22
2022-09-11T06:09:49.523Z,89.38
2022-09-11T06:10:49.465Z,89.55
2022-09-11T06:11:49.435Z,89.70
2022-09-11T06:12:49.370Z,89.62
2022-09-11T06:13:49.314Z,89.68
2022-09-11T06:14:49.264Z,89.68
2022-09-11T06:15:49.225Z,89.74
2022-09-11T06:16:49.223Z,89.83
2022-09-11T06:17:49.122Z,90.04
2022-09-11T06:18:49.447Z,90.17
2022-09-11T06:19:49.033Z,90.17
2022-09-11T06:20:48.972Z,90.19
2022-09-11T06:21:48.932Z,90.20
2022-09-11T06:22:48.873Z,90.18
2022-09-11T06:23:48.842Z,90.11
2022-09-11T06:24:48.779Z,90.03
2022-09-11T06:25:48.732Z,90.03
2022-09-11T06:26:48.693Z,90.07
2022-09-11T06:27:48.640Z,90.19
2022-09-11T06:28:48.589Z,90.20
2022-09-11T06:29:48.531Z,89.97
2022-09-11T06:30:48.530Z,90.10
2022-09-11T06:31:48.440Z,90.16
2022-09-11T06:32:48.370Z,90.34
2022-09-11T06:33:48.331Z,90.45
2022-09-11T06:34:48.278Z,90.01
2022-09-11T06:35:48.228Z,89.52
2022-09-11T06:36:51.906Z,89.02
2022-09-11T06:37:48.120Z,88.56
2022-09-11T06:38:48.067Z,88.41
2022-09-11T06:39:48.049Z,88.50
2022-09-11T06:40:47.968Z,88.60
2022-09-11T06:41:47.918Z,88.69
2022-09-11T06:42:47.860Z,88.89
2022-09-11T06:43:47.807Z,89.17
2022-09-11T06:44:50.776Z,89.40
2022-09-11T06:45:47.747Z,89.68
2022-09-11T06:46:47.648Z,89.89
2022-09-11T06:47:47.589Z,89.88
2022-09-11T06:48:47.547Z,89.58
2022-09-11T06:49:47.507Z,89.38
2022-09-11T06:50:47.454Z,89.59
2022-09-11T06:51:47.387Z,89.69
2022-09-11T06:52:47.327Z,89.83
2022-09-11T06:53:47.279Z,89.93
2022-09-11T06:54:47.226Z,90.02
2022-09-11T06:55:47.176Z,90.08
2022-09-11T06:56:47.136Z,90.11
2022-09-11T06:57:47.077Z,90.08
2022-09-11T06:58:47.032Z,90.05
2022-09-11T06:59:46.975Z,90.08
2022-09-11T07:00:47.040Z,90.11
2022-09-11T07:01:46.980Z,90.21
2022-09-11T07:02:46.824Z,90.23
2022-09-11T07:03:46.772Z,90.18
2022-09-11T07:04:46.714Z,90.15
2022-09-11T07:05:46.664Z,90.17
2022-09-11T07:06:46.613Z,90.16
2022-09-11T07:07:46.551Z,90.13
2022-09-11T07:08:46.503Z,90.13
2022-09-11T07:09:46.461Z,90.04
2022-09-11T07:10:46.424Z,89.94
2022-09-11T07:11:46.393Z,90.02
2022-09-11T07:12:46.339Z,90.16
2022-09-11T07:13:46.270Z,90.28
2022-09-11T07:14:46.220Z,90.33
2022-09-11T07:15:46.162Z,90.30
2022-09-11T07:16:46.158Z,90.29
2022-09-11T07:17:46.091Z,90.21
2022-09-11T07:18:46.030Z,90.16
2022-09-11T07:19:45.980Z,90.12
2022-09-11T07:20:45.932Z,90.10
2022-09-11T07:21:45.893Z,90.08
2022-09-11T07:22:45.848Z,90.06
2022-09-11T07:23:45.790Z,89.98
2022-09-11T07:24:45.740Z,89.86
2022-09-11T07:25:45.690Z,89.92
2022-09-11T07:26:45.649Z,90.06
2022-09-11T07:27:45.589Z,90.18
2022-09-11T07:28:45.528Z,90.24
2022-09-11T07:29:45.489Z,90.32
2022-09-11T07:30:45.462Z,90.30
2022-09-11T07:31:45.388Z,90.26
2022-09-11T07:32:45.328Z,90.26
2022-09-11T07:33:45.285Z,90.30
2022-09-11T07:34:45.230Z,90.42
2022-09-11T07:35:45.186Z,90.46
2022-09-11T07:36:45.147Z,90.49
2022-09-11T07:37:50.191Z,90.49
2022-09-11T07:38:46.042Z,90.47
2022-09-11T07:39:45.027Z,90.41
2022-09-11T07:40:44.934Z,90.29
2022-09-11T07:41:44.895Z,90.08
2022-09-11T07:42:44.845Z,89.99
2022-09-11T07:43:44.798Z,90.02
2022-09-11T07:44:44.743Z,90.24
2022-09-11T07:45:44.729Z,90.36
2022-09-11T07:46:44.656Z,90.47
2022-09-11T07:47:44.594Z,90.50
2022-09-11T07:48:44.555Z,90.37
2022-09-11T07:49:44.495Z,90.17
2022-09-11T07:50:44.453Z,89.95
2022-09-11T07:51:44.408Z,89.97
2022-09-11T07:52:44.354Z,90.16
2022-09-11T07:53:44.430Z,90.28
2022-09-11T07:54:44.243Z,90.29
2022-09-11T07:55:44.193Z,90.21
2022-09-11T07:56:44.133Z,90.12
2022-09-11T07:57:44.094Z,90.07
2022-09-11T07:58:44.033Z,90.05
2022-09-11T07:59:43.983Z,90.11
2022-09-11T08:00:43.933Z,90.16
2022-09-11T08:01:43.903Z,90.23
2022-09-11T08:02:44.613Z,90.23
2022-09-11T08:03:43.953Z,90.19
2022-09-11T08:04:43.830Z,90.21
2022-09-11T08:05:44.430Z,90.25
2022-09-11T08:06:43.631Z,90.35
2022-09-11T08:07:43.581Z,90.42
2022-09-11T08:08:43.519Z,90.40
2022-09-11T08:09:43.831Z,90.45
2022-09-11T08:10:43.411Z,90.40
2022-09-11T08:11:43.381Z,90.31
2022-09-11T08:12:43.335Z,90.14
2022-09-11T08:13:43.416Z,90.06
2022-09-11T08:14:43.191Z,89.34
2022-09-11T08:15:43.131Z,89.18
2022-09-11T08:16:43.113Z,89.36
2022-09-11T08:17:43.029Z,89.56
2022-09-11T08:18:42.969Z,89.54
2022-09-11T08:19:42.910Z,89.18
2022-09-11T08:20:42.855Z,89.32
2022-09-11T08:21:42.795Z,89.31
2022-09-11T08:22:42.757Z,89.05
2022-09-11T08:23:42.756Z,88.89
2022-09-11T08:24:42.637Z,88.98
2022-09-11T08:25:42.599Z,88.97
2022-09-11T08:26:46.817Z,89.05
2022-09-11T08:27:43.510Z,89.07
2022-09-11T08:28:42.456Z,89.10
2022-09-11T08:29:42.406Z,89.07
2022-09-11T08:30:42.346Z,88.74
2022-09-11T08:31:42.315Z,88.70
2022-09-11T08:32:42.275Z,88.94
2022-09-11T08:33:42.381Z,89.38
2022-09-11T08:34:42.145Z,89.61
2022-09-11T08:35:42.096Z,89.62
2022-09-11T08:36:42.045Z,89.70
2022-09-11T08:37:42.006Z,89.89
2022-09-11T08:38:41.954Z,89.99
2022-09-11T08:39:41.943Z,90.00
2022-09-11T08:40:41.864Z,89.99
2022-09-11T08:41:41.814Z,90.00
2022-09-11T08:42:41.785Z,90.06
2022-09-11T08:43:41.754Z,90.18
2022-09-11T08:44:41.688Z,90.31
2022-09-11T08:45:41.647Z,90.35
2022-09-11T08:46:41.590Z,90.27
2022-09-11T08:47:41.544Z,90.12
2022-09-11T08:48:41.493Z,90.08
2022-09-11T08:49:41.441Z,90.12
2022-09-11T08:50:41.415Z,90.09
2022-09-11T08:51:41.351Z,90.01
2022-09-11T08:52:41.311Z,89.94
2022-09-11T08:53:41.276Z,89.97
2022-09-11T08:54:41.221Z,89.94
2022-09-11T08:55:41.172Z,90.04
2022-09-11T08:56:41.132Z,89.99
2022-09-11T08:57:41.092Z,89.89
2022-09-11T08:58:41.031Z,89.81
2022-09-11T08:59:40.985Z,89.78
2022-09-11T09:00:40.941Z,89.78
2022-09-11T09:01:40.970Z,89.81
2022-09-11T09:02:40.860Z,89.84
2022-09-11T09:03:40.890Z,89.84
2022-09-11T09:04:40.779Z,89.85
2022-09-11T09:05:40.729Z,89.83
2022-09-11T09:06:40.688Z,89.82
2022-09-11T09:07:40.659Z,89.62
2022-09-11T09:08:40.608Z,89.75
2022-09-11T09:09:40.560Z,89.79
2022-09-11T09:10:40.527Z,89.55
2022-09-11T09:11:40.478Z,89.68
2022-09-11T09:12:40.437Z,89.69
2022-09-11T09:13:40.429Z,89.60
2022-09-11T09:14:40.346Z,89.67
2022-09-11T09:15:40.318Z,89.73
2022-09-11T09:16:40.248Z,89.72
2022-09-11T09:17:40.227Z,89.65
2022-09-11T09:18:40.157Z,89.68
2022-09-11T09:19:40.115Z,89.67
2022-09-11T09:20:40.067Z,89.72
2022-09-11T09:21:40.028Z,89.69
2022-09-11T09:22:39.993Z,89.71
2022-09-11T09:23:40.020Z,89.72
2022-09-11T09:24:39.892Z,89.62
2022-09-11T09:25:39.845Z,89.56
2022-09-11T09:26:39.804Z,89.61
2022-09-11T09:27:39.754Z,89.66
2022-09-11T09:28:39.707Z,89.62
2022-09-11T09:29:39.665Z,89.61
2022-09-11T09:30:39.614Z,89.05
2022-09-11T09:31:39.566Z,88.70
2022-09-11T09:32:39.523Z,88.29
2022-09-11T09:33:39.500Z,88.01
2022-09-11T09:34:39.429Z,87.99
2022-09-11T09:35:39.396Z,87.93
2022-09-11T09:36:39.333Z,87.69
2022-09-11T09:37:39.305Z,87.58
2022-09-11T09:38:39.242Z,87.44
2022-09-11T09:39:39.249Z,87.20
2022-09-11T09:40:39.143Z,86.97
2022-09-11T09:41:39.093Z,86.85
2022-09-11T09:42:39.051Z,86.03
2022-09-11T09:43:39.031Z,85.48
2022-09-11T09:44:38.978Z,85.30
2022-09-11T09:45:38.934Z,85.31
2022-09-11T09:46:38.870Z,85.64
2022-09-11T09:47:38.847Z,85.80
2022-09-11T09:48:38.778Z,85.60
2022-09-11T09:49:38.720Z,85.31
2022-09-11T09:50:38.659Z,85.37
2022-09-11T09:51:38.639Z,84.88
2022-09-11T09:52:38.570Z,84.61
2022-09-11T09:53:38.532Z,84.88
2022-09-11T09:54:38.479Z,85.31
2022-09-11T09:55:38.418Z,85.47
2022-09-11T09:56:38.378Z,85.60
2022-09-11T09:57:38.316Z,85.96
2022-09-11T09:58:38.278Z,85.98
2022-09-11T09:59:38.218Z,86.03
2022-09-11T10:00:38.180Z,86.09
2022-09-11T10:01:38.165Z,86.15
2022-09-11T10:02:38.147Z,86.22
2022-09-11T10:03:38.057Z,86.24
2022-09-11T10:04:38.024Z,86.11
2022-09-11T10:05:37.959Z,85.90
2022-09-11T10:06:37.911Z,85.67
2022-09-11T10:07:37.846Z,85.42
2022-09-11T10:08:37.817Z,85.70
2022-09-11T10:09:37.799Z,85.90
2022-09-11T10:10:37.705Z,85.89
2022-09-11T10:11:37.661Z,85.77
2022-09-11T10:12:37.624Z,85.87
2022-09-11T10:13:37.598Z,85.77
2022-09-11T10:14:52.917Z,85.85
2022-09-11T10:15:38.544Z,85.80
2022-09-11T10:16:37.434Z,85.79
2022-09-11T10:17:37.384Z,85.96
2022-09-11T10:18:37.344Z,85.90
2022-09-11T10:19:37.453Z,85.98
2022-09-11T10:20:37.254Z,85.73
2022-09-11T10:21:37.183Z,85.59
2022-09-11T10:22:37.133Z,85.61
2022-09-11T10:23:37.101Z,85.84
2022-09-11T10:24:37.044Z,85.91
2022-09-11T10:25:36.991Z,85.95
2022-09-11T10:26:36.941Z,85.71
2022-09-11T10:27:36.900Z,85.75
2022-09-11T10:28:36.852Z,85.42
2022-09-11T10:29:36.802Z,85.18
2022-09-11T10:30:36.759Z,85.50
2022-09-11T10:31:36.709Z,85.55
2022-09-11T10:32:36.670Z,85.61
2022-09-11T10:33:36.641Z,85.12
2022-09-11T10:34:36.577Z,85.61
2022-09-11T10:35:36.519Z,85.59
2022-09-11T10:36:36.460Z,85.49
2022-09-11T10:37:36.410Z,84.65
2022-09-11T10:38:40.745Z,85.00
2022-09-11T10:39:37.365Z,85.17
2022-09-11T10:40:36.267Z,84.80
2022-09-11T10:41:36.220Z,84.82
2022-09-11T10:42:36.179Z,84.28
2022-09-11T10:43:36.137Z,84.68
2022-09-11T10:44:36.088Z,84.44
2022-09-11T10:45:36.105Z,84.27
2022-09-11T10:46:37.709Z,83.32
2022-09-11T10:47:35.936Z,83.57
2022-09-11T10:48:35.895Z,83.58
2022-09-11T10:49:35.847Z,84.13
2022-09-11T10:50:35.797Z,84.48
2022-09-11T10:51:35.746Z,84.49
2022-09-11T10:52:35.699Z,85.67
2022-09-11T10:53:35.657Z,84.71
2022-09-11T10:54:35.618Z,83.99
2022-09-11T10:55:35.562Z,83.27
2022-09-11T10:56:35.516Z,83.15
2022-09-11T10:57:35.474Z,83.94
2022-09-11T10:58:35.462Z,84.52
2022-09-11T10:59:35.417Z,84.25
2022-09-11T11:00:35.370Z,84.12
2022-09-11T11:01:35.356Z,83.54
2022-09-11T11:02:35.254Z,83.75
2022-09-11T11:03:35.214Z,84.12
2022-09-11T11:04:35.164Z,83.47
2022-09-11T11:05:35.131Z,84.14
2022-09-11T11:06:35.075Z,84.03
2022-09-11T11:07:35.032Z,84.38
2022-09-11T11:08:34.982Z,83.71
2022-09-11T11:09:34.977Z,83.76
2022-09-11T11:10:34.883Z,83.67
2022-09-11T11:11:34.834Z,84.11
2022-09-11T11:12:34.781Z,83.38
2022-09-11T11:13:34.753Z,84.32
2022-09-11T11:14:34.687Z,84.40
2022-09-11T11:15:34.654Z,84.57
2022-09-11T11:16:34.611Z,84.68
2022-09-11T11:17:34.560Z,84.99
2022-09-11T11:18:34.583Z,84.56
2022-09-11T11:19:34.461Z,84.60
2022-09-11T11:20:34.451Z,84.66
2022-09-11T11:21:34.383Z,84.54
2022-09-11T11:22:34.314Z,84.65
2022-09-11T11:23:34.306Z,84.41
2022-09-11T11:24:34.221Z,84.58
2022-09-11T11:25:34.161Z,84.59
2022-09-11T11:26:34.117Z,84.73
2022-09-11T11:27:34.069Z,84.48
2022-09-11T11:28:34.066Z,84.84
2022-09-11T11:29:33.970Z,84.93
2022-09-11T11:30:33.920Z,84.67
2022-09-11T11:31:33.925Z,84.73
2022-09-11T11:32:33.908Z,84.62
2022-09-11T11:33:33.768Z,84.65
2022-09-11T11:34:33.741Z,84.87
2022-09-11T11:35:33.670Z,84.50
2022-09-11T11:36:33.618Z,84.64
2022-09-11T11:37:33.585Z,84.64
2022-09-11T11:38:33.573Z,84.47
2022-09-11T11:39:33.487Z,84.67
2022-09-11T11:40:33.472Z,84.86
2022-09-11T11:41:33.380Z,84.93
2022-09-11T11:42:33.356Z,85.07
2022-09-11T11:43:33.286Z,85.00
2022-09-11T11:44:33.250Z,84.89
2022-09-11T11:45:33.271Z,84.56
2022-09-11T11:46:33.157Z,84.00
2022-09-11T11:47:33.116Z,83.26
2022-09-11T11:48:33.140Z,83.54
2022-09-11T11:49:33.052Z,83.71
2022-09-11T11:50:32.984Z,83.96
2022-09-11T11:51:32.968Z,83.81
2022-09-11T11:52:32.897Z,83.37
2022-09-11T11:53:32.880Z,83.69
2022-09-11T11:54:32.826Z,83.49
2022-09-11T11:55:32.829Z,83.22
2022-09-11T11:56:32.703Z,82.82
2022-09-11T11:57:32.677Z,82.88
2022-09-11T11:58:32.622Z,82.68
2022-09-11T11:59:32.591Z,82.47
2022-09-11T12:00:32.559Z,82.02
2022-09-11T12:01:32.547Z,81.97
2022-09-11T12:02:32.432Z,81.44
2022-09-11T12:03:32.455Z,81.56
2022-09-11T12:04:32.368Z,81.35
2022-09-11T12:05:32.301Z,81.38
2022-09-11T12:06:32.253Z,81.42
2022-09-11T12:07:32.190Z,82.06
2022-09-11T12:08:32.153Z,82.60
2022-09-11T12:09:33.807Z,83.02
2022-09-11T12:10:32.068Z,82.54
2022-09-11T12:11:32.013Z,82.43
2022-09-11T12:12:31.940Z,81.90
2022-09-11T12:13:31.897Z,82.86
2022-09-11T12:14:31.852Z,82.76
2022-09-11T12:15:31.789Z,82.79
2022-09-11T12:16:31.824Z,82.68
2022-09-11T12:17:31.700Z,83.11
2022-09-11T12:18:31.659Z,83.00
2022-09-11T12:19:31.609Z,82.43
2022-09-11T12:20:31.562Z,83.51
2022-09-11T12:21:31.566Z,83.51
2022-09-11T12:22:31.458Z,82.52
2022-09-11T12:23:31.399Z,82.98
2022-09-11T12:24:31.358Z,82.37
2022-09-11T12:25:31.297Z,82.87
2022-09-11T12:26:31.235Z,83.07
2022-09-11T12:27:31.220Z,82.79
2022-09-11T12:28:31.130Z,82.93
2022-09-11T12:29:31.106Z,83.40
2022-09-11T12:30:31.051Z,83.58
2022-09-11T12:31:31.028Z,83.37
2022-09-11T12:32:31.018Z,83.85
2022-09-11T12:33:30.907Z,83.69
2022-09-11T12:34:30.857Z,83.46
2022-09-11T12:35:30.795Z,83.58
2022-09-11T12:36:30.756Z,83.73
2022-09-11T12:37:30.698Z,83.69
2022-09-11T12:38:30.675Z,83.63
2022-09-11T12:39:30.615Z,83.73
2022-09-11T12:40:30.582Z,83.99
2022-09-11T12:41:30.554Z,84.16
2022-09-11T12:42:30.464Z,83.98
2022-09-11T12:43:30.427Z,84.05
2022-09-11T12:44:30.354Z,84.29
2022-09-11T12:45:30.372Z,84.50
2022-09-11T12:46:30.263Z,84.44
2022-09-11T12:47:30.223Z,84.24
2022-09-11T12:48:30.182Z,84.09
2022-09-11T12:49:30.131Z,84.21
2022-09-11T12:50:30.102Z,84.24
2022-09-11T12:51:30.077Z,84.36